Wetterdaten: aktuell Freitag, 20.09.2019 05:00
Datum Zeit Temp. A. Feuchte A. Luftdruck Regen Wind UV Solar Windben
20.09.2019 05:00 4,2 C 87 % 1028,1 hPa 0,0 l/m 0,0 km/h (0 Bft) 0,0 UV-I 0 W/m 0,0 km/h (0 Bft)
20.09.2019 04:00 4,4 C 88 % 1028,1 hPa 0,0 l/m 1,1 km/h (1 Bft) 0,0 UV-I 0 W/m 4,8 km/h (1 Bft)
20.09.2019 03:00 4,7 C 87 % 1028,3 hPa 0,0 l/m 0,0 km/h (0 Bft) 0,0 UV-I 0 W/m 0,0 km/h (0 Bft)
20.09.2019 02:00 5,1 C 86 % 1028,6 hPa 0,0 l/m 0,2 km/h (0 Bft) 0,0 UV-I 0 W/m 3,2 km/h (1 Bft)
20.09.2019 01:00 5,1 C 87 % 1028,7 hPa 0,0 l/m 0,4 km/h (0 Bft) 0,0 UV-I 0 W/m 1,6 km/h (1 Bft)
20.09.2019 00:00 4,7 C 88 % 1028,8 hPa 0,0 l/m 0,0 km/h (0 Bft) 0,0 UV-I 0 W/m 0,0 km/h (0 Bft)
19.09.2019 23:00 4,7 C 86 % 1028,7 hPa 0,0 l/m 0,0 km/h (0 Bft) 0,0 UV-I 0 W/m 0,0 km/h (0 Bft)
19.09.2019 22:00 5,6 C 83 % 1028,6 hPa 0,0 l/m 0,0 km/h (0 Bft) 0,0 UV-I 0 W/m 0,0 km/h (0 Bft)
19.09.2019 21:00 5,9 C 82 % 1028,2 hPa 0,0 l/m 0,0 km/h (0 Bft) 0,0 UV-I 0 W/m 0,0 km/h (0 Bft)
19.09.2019 20:00 7,5 C 78 % 1028,0 hPa 0,0 l/m 0,0 km/h (0 Bft) 0,0 UV-I 0 W/m 0,0 km/h (0 Bft)
19.09.2019 19:00 10,4 C 72 % 1027,6 hPa 0,0 l/m 0,0 km/h (0 Bft) 0,0 UV-I 18 W/m 0,0 km/h (0 Bft)
19.09.2019 18:00 10,9 C 64 % 1027,0 hPa 0,0 l/m 1,2 km/h (1 Bft) 0,0 UV-I 88 W/m 4,8 km/h (1 Bft)
19.09.2019 17:00 11,6 C 64 % 1027,2 hPa 0,0 l/m 0,4 km/h (0 Bft) 0,0 UV-I 179 W/m 3,2 km/h (1 Bft)
19.09.2019 16:00 12,1 C 62 % 1027,4 hPa 0,0 l/m 6,0 km/h (2 Bft) 0,0 UV-I 222 W/m 16,1 km/h (3 Bft)
19.09.2019 15:00 12,2 C 61 % 1027,3 hPa 0,0 l/m 8,9 km/h (2 Bft) 0,0 UV-I 525 W/m 19,3 km/h (3 Bft)
19.09.2019 14:00 11,1 C 69 % 1027,5 hPa 0,0 l/m 8,6 km/h (2 Bft) 0,7 UV-I 660 W/m 14,5 km/h (3 Bft)
19.09.2019 13:00 10,5 C 73 % 1027,2 hPa 0,0 l/m 9,0 km/h (2 Bft) 1,4 UV-I 694 W/m 14,5 km/h (3 Bft)
19.09.2019 12:00 9,4 C 78 % 1027,3 hPa 0,0 l/m 11,7 km/h (2 Bft) 0,7 UV-I 811 W/m 19,3 km/h (3 Bft)
19.09.2019 11:00 8,4 C 86 % 1027,1 hPa 0,3 l/m 8,4 km/h (2 Bft) 0,0 UV-I 295 W/m 12,9 km/h (3 Bft)
19.09.2019 10:00 7,2 C 87 % 1027,0 hPa 0,0 l/m 5,5 km/h (1 Bft) 0,0 UV-I 198 W/m 12,9 km/h (3 Bft)
19.09.2019 09:00 6,2 C 89 % 1026,5 hPa 0,0 l/m 1,2 km/h (1 Bft) 0,0 UV-I 115 W/m 4,8 km/h (1 Bft)
19.09.2019 08:00 5,4 C 90 % 1026,0 hPa 0,0 l/m 2,3 km/h (1 Bft) 0,0 UV-I 48 W/m 6,4 km/h (2 Bft)
19.09.2019 07:00 4,8 C 91 % 1025,5 hPa 0,0 l/m 0,0 km/h (0 Bft) 0,0 UV-I 5 W/m 0,0 km/h (0 Bft)
19.09.2019 06:00 4,3 C 92 % 1025,2 hPa 0,0 l/m 0,2 km/h (0 Bft) 0,0 UV-I 0 W/m 1,6 km/h (1 Bft)
_ Min-Zeit 05:00 15:28 06:00 - 06:04 - - 06:04
Minimum _ 4,2 C 57 % 1025,2 hPa - 0,0 km/h (0 Bft) - - 0,0 km/h (0 Bft)
_ Max-Zeit 15:22 06:00 23:18 10:56 15:24 12:58 12:00 11:46
Maximum _ 12,6 C 92 % 1028,9 hPa 0,3 l/m 17,2 km/h
N-NW (3 Bft)
1,4 UV-I 811 W/m 27,4 km/h
NW (4 Bft)
Durchschnitt _ 7,2 C 81 % 1027,4 hPa #0,3 l/m 2,7 km/h (1 Bft) 0,0 UV-I 0 W/m 5,4 km/h (1 Bft)